createdAt,value
2023-01-13T00:01:17.727Z,6.66
2023-01-13T00:03:45.487Z,6.66
2023-01-13T00:06:14.310Z,6.66
2023-01-13T00:08:42.015Z,6.64
2023-01-13T00:11:10.423Z,6.64
2023-01-13T00:13:38.825Z,6.65
2023-01-13T00:16:07.866Z,6.65
2023-01-13T00:18:36.950Z,6.65
2023-01-13T00:21:10.782Z,6.65
2023-01-13T00:23:39.503Z,6.66
2023-01-13T00:26:08.484Z,6.67
2023-01-13T00:28:37.094Z,6.68
2023-01-13T00:31:06.338Z,6.69
2023-01-13T00:33:34.397Z,6.69
2023-01-13T00:36:02.882Z,6.70
2023-01-13T00:38:31.414Z,6.71
2023-01-13T00:41:03.291Z,6.72
2023-01-13T00:43:32.591Z,6.73
2023-01-13T00:46:00.786Z,6.74
2023-01-13T00:48:29.557Z,6.75
2023-01-13T00:50:58.157Z,6.75
2023-01-13T00:53:26.915Z,6.75
2023-01-13T00:56:01.168Z,6.74
2023-01-13T00:58:31.042Z,6.73
2023-01-13T01:01:02.853Z,6.73
2023-01-13T01:03:31.086Z,6.73
2023-01-13T01:06:03.847Z,6.70
2023-01-13T01:08:31.911Z,6.67
2023-01-13T01:11:03.522Z,6.64
2023-01-13T01:13:31.257Z,6.59
2023-01-13T01:15:58.894Z,6.54
2023-01-13T01:18:26.595Z,6.52
2023-01-13T01:20:54.304Z,6.49
2023-01-13T01:23:22.002Z,6.47
2023-01-13T01:25:49.753Z,6.45
2023-01-13T01:28:19.433Z,6.43
2023-01-13T01:30:47.183Z,6.40
2023-01-13T01:33:14.864Z,6.37
2023-01-13T01:35:42.913Z,6.35
2023-01-13T01:38:10.968Z,6.34
2023-01-13T01:40:38.641Z,6.33
2023-01-13T01:43:32.311Z,6.33
2023-01-13T01:46:00.056Z,6.33
2023-01-13T01:48:30.280Z,6.33
2023-01-13T01:50:58.015Z,6.32
2023-01-13T01:53:26.936Z,6.32
2023-01-13T01:55:55.214Z,6.32
2023-01-13T01:58:25.865Z,6.31
2023-01-13T02:00:53.801Z,6.31
2023-01-13T02:03:21.893Z,6.32
2023-01-13T02:05:49.807Z,6.32
2023-01-13T02:08:18.101Z,6.32
2023-01-13T02:10:50.530Z,6.31
2023-01-13T02:13:18.485Z,6.31
2023-01-13T02:15:46.180Z,6.30
2023-01-13T02:18:29.917Z,6.31
2023-01-13T02:21:13.769Z,6.30
2023-01-13T02:24:13.395Z,6.30
2023-01-13T02:26:57.083Z,6.30
2023-01-13T02:29:40.957Z,6.31
2023-01-13T02:32:28.972Z,6.31
2023-01-13T02:35:02.640Z,6.31
2023-01-13T02:37:33.195Z,6.32
2023-01-13T02:40:03.003Z,6.33
2023-01-13T02:42:50.973Z,6.34
2023-01-13T02:45:21.758Z,6.34
2023-01-13T02:47:51.296Z,6.35
2023-01-13T02:50:22.170Z,6.35
2023-01-13T02:52:56.272Z,6.35
2023-01-13T02:55:30.609Z,6.36
2023-01-13T02:57:59.792Z,6.36
2023-01-13T03:00:28.642Z,6.36
2023-01-13T03:02:56.646Z,6.38
2023-01-13T03:05:26.654Z,6.39
2023-01-13T03:08:10.262Z,6.39
2023-01-13T03:10:47.487Z,6.40
2023-01-13T03:13:18.391Z,6.41
2023-01-13T03:15:54.664Z,6.41
2023-01-13T03:18:30.207Z,6.42
2023-01-13T03:21:13.897Z,6.42
2023-01-13T03:23:50.861Z,6.42
2023-01-13T03:26:30.449Z,6.43
2023-01-13T03:29:02.172Z,6.43
2023-01-13T03:31:31.460Z,6.44
2023-01-13T03:34:04.114Z,6.45
2023-01-13T03:36:33.119Z,6.45
2023-01-13T03:39:05.161Z,6.46
2023-01-13T03:41:35.314Z,6.47
2023-01-13T03:44:27.533Z,6.50
2023-01-13T03:47:11.331Z,6.51
2023-01-13T03:49:38.964Z,6.51
2023-01-13T03:52:09.665Z,6.51
2023-01-13T03:54:45.158Z,6.53
2023-01-13T03:57:15.587Z,6.53
2023-01-13T03:59:45.300Z,6.53
2023-01-13T04:02:18.210Z,6.53
2023-01-13T04:04:53.770Z,6.54
2023-01-13T04:07:31.085Z,6.54
2023-01-13T04:10:03.892Z,6.54
2023-01-13T04:12:49.356Z,6.54
2023-01-13T04:15:24.824Z,6.56
2023-01-13T04:17:52.970Z,6.57
2023-01-13T04:20:21.148Z,6.58
2023-01-13T04:22:48.804Z,6.60
2023-01-13T04:25:16.477Z,6.61
2023-01-13T04:27:44.741Z,6.61
2023-01-13T04:30:12.525Z,6.60
2023-01-13T04:32:40.384Z,6.61
2023-01-13T04:35:08.372Z,6.60
2023-01-13T04:37:36.022Z,6.59
2023-01-13T04:40:03.983Z,6.60
2023-01-13T04:42:31.678Z,6.59
2023-01-13T04:44:59.311Z,6.58
2023-01-13T04:47:26.997Z,6.58
2023-01-13T04:49:54.573Z,6.57
2023-01-13T04:52:22.192Z,6.57
2023-01-13T04:54:49.804Z,6.56
2023-01-13T04:57:17.387Z,6.57
2023-01-13T04:59:44.988Z,6.57
2023-01-13T05:02:19.784Z,6.57
2023-01-13T05:04:47.930Z,6.56
2023-01-13T05:07:16.499Z,6.56
2023-01-13T05:09:44.318Z,6.56
2023-01-13T05:12:27.882Z,6.56
2023-01-13T05:15:11.511Z,6.56
2023-01-13T05:17:39.686Z,6.58
2023-01-13T05:20:08.154Z,6.59
2023-01-13T05:22:51.826Z,6.59
2023-01-13T05:25:22.336Z,6.60
2023-01-13T05:27:50.771Z,6.60
2023-01-13T05:30:19.181Z,6.62
2023-01-13T05:32:46.835Z,6.63
2023-01-13T05:35:15.955Z,6.64
2023-01-13T05:37:44.093Z,6.64
2023-01-13T05:40:28.935Z,6.62
2023-01-13T05:43:28.510Z,6.64
2023-01-13T05:46:00.690Z,6.67
2023-01-13T05:48:33.049Z,6.69
2023-01-13T05:51:02.184Z,6.70
2023-01-13T05:53:30.016Z,6.73
2023-01-13T05:55:57.880Z,6.75
2023-01-13T05:58:26.677Z,6.76
2023-01-13T06:00:59.798Z,6.77
2023-01-13T06:03:27.619Z,6.77
2023-01-13T06:06:03.715Z,6.78
2023-01-13T06:08:31.915Z,6.79
2023-01-13T06:10:59.631Z,6.82
2023-01-13T06:13:27.733Z,6.84
2023-01-13T06:15:56.484Z,6.85
2023-01-13T06:18:24.349Z,6.86
2023-01-13T06:20:52.059Z,6.86
2023-01-13T06:23:19.687Z,6.87
2023-01-13T06:26:03.338Z,6.88
2023-01-13T06:28:33.145Z,6.89
2023-01-13T06:31:04.289Z,6.89
2023-01-13T06:33:33.703Z,6.90
2023-01-13T06:36:02.919Z,6.90
2023-01-13T06:38:33.462Z,6.92
2023-01-13T06:41:01.124Z,6.94
2023-01-13T06:43:28.826Z,6.95
2023-01-13T06:45:56.532Z,6.97
2023-01-13T06:48:27.353Z,6.99
2023-01-13T06:50:55.224Z,7.00
2023-01-13T06:53:22.923Z,7.03
2023-01-13T06:55:50.602Z,7.05
2023-01-13T06:58:18.470Z,7.07
2023-01-13T07:00:51.058Z,7.10
2023-01-13T07:03:18.998Z,7.13
2023-01-13T07:05:54.343Z,7.14
2023-01-13T07:08:23.053Z,7.17
2023-01-13T07:10:51.193Z,7.19
2023-01-13T07:13:34.819Z,7.22
2023-01-13T07:16:04.807Z,7.22
2023-01-13T07:18:33.949Z,7.23
2023-01-13T07:21:03.359Z,7.23
2023-01-13T07:23:31.993Z,7.24
2023-01-13T07:25:59.715Z,7.26
2023-01-13T07:28:28.401Z,7.27
2023-01-13T07:30:57.420Z,7.28
2023-01-13T07:33:25.170Z,7.29
2023-01-13T07:35:59.969Z,7.29
2023-01-13T07:38:27.769Z,7.30
2023-01-13T07:40:55.966Z,7.30
2023-01-13T07:43:39.656Z,7.30
2023-01-13T07:46:07.505Z,7.33
2023-01-13T07:48:35.229Z,7.34
2023-01-13T07:51:07.267Z,7.36
2023-01-13T07:53:35.759Z,7.37
2023-01-13T07:56:05.315Z,7.40
2023-01-13T07:58:34.362Z,7.42
2023-01-13T08:01:09.301Z,7.44
2023-01-13T08:03:36.974Z,7.48
2023-01-13T08:06:05.510Z,7.49
2023-01-13T08:08:33.265Z,7.48
2023-01-13T08:11:01.958Z,7.49
2023-01-13T08:13:30.633Z,7.49
2023-01-13T08:16:02.807Z,7.51
2023-01-13T08:18:31.956Z,7.50
2023-01-13T08:21:04.830Z,7.51
2023-01-13T08:23:32.459Z,7.53
2023-01-13T08:26:02.291Z,7.53
2023-01-13T08:28:33.505Z,7.55
2023-01-13T08:31:02.372Z,7.58
2023-01-13T08:33:30.824Z,7.59
2023-01-13T08:35:58.470Z,7.60
2023-01-13T08:38:27.248Z,7.59
2023-01-13T08:40:58.004Z,7.60
2023-01-13T08:43:29.359Z,7.59
2023-01-13T08:46:00.322Z,7.60
2023-01-13T08:48:31.282Z,7.62
2023-01-13T08:51:03.939Z,7.62
2023-01-13T08:53:31.977Z,7.62
2023-01-13T08:55:59.758Z,7.65
2023-01-13T08:58:27.830Z,7.67
2023-01-13T09:00:55.620Z,7.66
2023-01-13T09:03:23.396Z,7.67
2023-01-13T09:05:51.129Z,7.69
2023-01-13T09:08:18.906Z,7.70
2023-01-13T09:10:46.511Z,7.70
2023-01-13T09:13:14.605Z,7.70
2023-01-13T09:15:44.489Z,7.70
2023-01-13T09:18:12.553Z,7.67
2023-01-13T09:20:40.457Z,7.64
2023-01-13T09:23:10.627Z,7.63
2023-01-13T09:25:39.468Z,7.63
2023-01-13T09:28:09.655Z,7.64
2023-01-13T09:30:38.011Z,7.64
2023-01-13T09:33:28.747Z,7.65
2023-01-13T09:36:02.090Z,7.68
2023-01-13T09:38:29.794Z,7.68
2023-01-13T09:40:57.565Z,7.67
2023-01-13T09:43:52.881Z,7.65
2023-01-13T09:46:48.025Z,7.66
2023-01-13T09:49:23.973Z,7.63
2023-01-13T09:52:07.615Z,7.62
2023-01-13T09:54:42.834Z,7.61
2023-01-13T09:57:15.102Z,7.61
2023-01-13T09:59:42.958Z,7.62
2023-01-13T10:02:13.441Z,7.64
2023-01-13T10:04:41.335Z,7.66
2023-01-13T10:07:13.540Z,7.69
2023-01-13T10:09:47.641Z,7.70
2023-01-13T10:12:34.135Z,7.72
2023-01-13T10:15:02.858Z,7.76
2023-01-13T10:17:36.331Z,7.79
2023-01-13T10:20:03.947Z,7.79
2023-01-13T10:22:37.602Z,7.80
2023-01-13T10:25:08.578Z,7.85
2023-01-13T10:27:39.513Z,7.86
2023-01-13T10:30:31.561Z,7.85
2023-01-13T10:33:09.068Z,7.83
2023-01-13T10:35:53.261Z,7.83
2023-01-13T10:38:38.002Z,7.86
2023-01-13T10:41:05.673Z,7.92
2023-01-13T10:43:33.564Z,7.97
2023-01-13T10:46:04.556Z,8.00
2023-01-13T10:48:53.758Z,8.03
2023-01-13T10:51:26.238Z,8.06
2023-01-13T10:53:55.683Z,8.06
2023-01-13T10:56:24.858Z,8.07
2023-01-13T10:58:52.750Z,8.07
2023-01-13T11:01:20.533Z,8.07
2023-01-13T11:03:48.558Z,8.05
2023-01-13T11:06:20.961Z,8.04
2023-01-13T11:08:49.982Z,8.03
2023-01-13T11:11:33.661Z,8.03
2023-01-13T11:14:20.187Z,8.05
2023-01-13T11:16:53.808Z,8.07
2023-01-13T11:19:24.080Z,8.08
2023-01-13T11:21:59.026Z,8.08
2023-01-13T11:24:42.678Z,8.08
2023-01-13T11:27:13.349Z,8.09
2023-01-13T11:29:57.906Z,8.11
2023-01-13T11:32:26.726Z,8.14
2023-01-13T11:34:57.111Z,8.14
2023-01-13T11:37:26.400Z,8.16
2023-01-13T11:40:05.793Z,8.17
2023-01-13T11:42:41.635Z,8.19
2023-01-13T11:45:25.100Z,8.25
2023-01-13T11:47:53.790Z,8.34
2023-01-13T11:50:34.640Z,8.38
2023-01-13T11:53:02.582Z,8.41
2023-01-13T11:55:46.292Z,8.41
2023-01-13T11:58:13.926Z,8.42
2023-01-13T12:00:53.746Z,8.43
2023-01-13T12:03:33.584Z,8.44
2023-01-13T12:06:11.271Z,8.46
2023-01-13T12:08:38.875Z,8.48
2023-01-13T12:11:14.564Z,8.50
2023-01-13T12:13:58.366Z,8.48
2023-01-13T12:16:30.831Z,8.48
2023-01-13T12:19:14.571Z,8.53
2023-01-13T12:21:58.211Z,8.54
2023-01-13T12:24:29.906Z,8.54
2023-01-13T12:27:04.223Z,8.53
2023-01-13T12:29:38.753Z,8.57
2023-01-13T12:32:20.909Z,8.61
2023-01-13T12:35:14.959Z,8.65
2023-01-13T12:37:44.864Z,8.65
2023-01-13T12:40:28.459Z,8.62
2023-01-13T12:43:20.103Z,8.63
2023-01-13T12:45:47.760Z,8.65
2023-01-13T12:48:31.501Z,8.62
2023-01-13T12:51:02.301Z,8.61
2023-01-13T12:53:31.841Z,8.61
2023-01-13T12:56:15.465Z,8.61
2023-01-13T12:58:43.095Z,8.63
2023-01-13T13:01:12.440Z,8.63
2023-01-13T13:03:40.893Z,8.61
2023-01-13T13:06:24.445Z,8.58
2023-01-13T13:09:08.107Z,8.56
2023-01-13T13:11:53.378Z,8.55
2023-01-13T13:14:37.074Z,8.56
2023-01-13T13:17:05.383Z,8.64
2023-01-13T13:19:32.963Z,8.82
2023-01-13T13:22:17.949Z,8.92
2023-01-13T13:24:48.492Z,9.00
2023-01-13T13:27:26.015Z,9.04
2023-01-13T13:29:58.615Z,9.07
2023-01-13T13:32:42.259Z,9.06
2023-01-13T13:35:26.913Z,9.04
2023-01-13T13:38:26.576Z,9.05
2023-01-13T13:41:10.294Z,9.06
2023-01-13T13:43:58.474Z,9.04
2023-01-13T13:46:46.472Z,9.03
2023-01-13T13:49:15.684Z,9.01
2023-01-13T13:51:57.891Z,9.02
2023-01-13T13:54:25.901Z,8.97
2023-01-13T13:56:53.928Z,8.93
2023-01-13T13:59:23.307Z,8.86
2023-01-13T14:02:00.752Z,8.77
2023-01-13T14:04:33.185Z,8.67
2023-01-13T14:07:04.375Z,8.62
2023-01-13T14:09:48.061Z,8.59
2023-01-13T14:12:17.955Z,8.58
2023-01-13T14:14:46.627Z,8.51
2023-01-13T14:17:30.562Z,8.44
2023-01-13T14:20:04.827Z,8.36
2023-01-13T14:22:32.797Z,8.27
2023-01-13T14:25:01.900Z,8.23
2023-01-13T14:27:30.328Z,8.18
2023-01-13T14:30:00.314Z,8.12
2023-01-13T14:32:35.242Z,8.07
2023-01-13T14:35:06.327Z,8.01
2023-01-13T14:37:38.784Z,7.98
2023-01-13T14:40:26.536Z,7.93
2023-01-13T14:42:58.162Z,7.89
2023-01-13T14:45:26.860Z,7.86
2023-01-13T14:47:54.765Z,7.84
2023-01-13T14:50:31.320Z,7.82
2023-01-13T14:53:00.636Z,7.82
2023-01-13T14:55:31.362Z,7.84
2023-01-13T14:58:15.141Z,7.82
2023-01-13T15:00:42.925Z,7.81
2023-01-13T15:03:13.856Z,7.77
2023-01-13T15:05:47.086Z,7.74
2023-01-13T15:08:14.822Z,7.72
2023-01-13T15:11:01.351Z,7.71
2023-01-13T15:13:29.041Z,7.70
2023-01-13T15:15:57.576Z,7.70
2023-01-13T15:18:25.558Z,7.70
2023-01-13T15:20:53.217Z,7.71
2023-01-13T15:23:21.281Z,7.71
2023-01-13T15:25:49.330Z,7.71
2023-01-13T15:28:20.015Z,7.73
2023-01-13T15:30:49.067Z,7.72
2023-01-13T15:33:17.484Z,7.71
2023-01-13T15:35:46.274Z,7.70
2023-01-13T15:38:15.427Z,7.69
2023-01-13T15:40:43.367Z,7.67
2023-01-13T15:43:30.879Z,7.66
2023-01-13T15:46:14.611Z,7.70
2023-01-13T15:48:42.372Z,7.72
2023-01-13T15:51:11.682Z,7.68
2023-01-13T15:53:40.143Z,7.70
2023-01-13T15:56:12.960Z,7.72
2023-01-13T15:58:40.983Z,7.74
2023-01-13T16:01:10.091Z,7.72
2023-01-13T16:03:38.047Z,7.72
2023-01-13T16:06:12.433Z,7.74
2023-01-13T16:08:40.373Z,7.74
2023-01-13T16:11:08.741Z,7.73
2023-01-13T16:13:36.937Z,7.70
2023-01-13T16:16:13.850Z,7.67
2023-01-13T16:18:41.494Z,7.66
2023-01-13T16:21:11.893Z,7.63
2023-01-13T16:23:39.672Z,7.60
2023-01-13T16:26:14.121Z,7.56
2023-01-13T16:28:41.800Z,7.54
2023-01-13T16:31:36.079Z,7.53
2023-01-13T16:34:04.763Z,7.51
2023-01-13T16:36:34.496Z,7.51
2023-01-13T16:39:02.265Z,7.51
2023-01-13T16:41:29.926Z,7.51
2023-01-13T16:43:59.707Z,7.49
2023-01-13T16:46:28.868Z,7.48
2023-01-13T16:49:01.097Z,7.48
2023-01-13T16:51:28.829Z,7.47
2023-01-13T16:53:56.699Z,7.47
2023-01-13T16:56:24.390Z,7.48
2023-01-13T16:58:53.278Z,7.47
2023-01-13T17:01:28.560Z,7.46
2023-01-13T17:03:57.603Z,7.47
2023-01-13T17:06:28.390Z,7.46
2023-01-13T17:09:00.021Z,7.44
2023-01-13T17:11:27.654Z,7.41
2023-01-13T17:13:55.389Z,7.40
2023-01-13T17:16:24.307Z,7.39
2023-01-13T17:18:52.774Z,7.37
2023-01-13T17:21:20.467Z,7.36
2023-01-13T17:23:48.195Z,7.35
2023-01-13T17:26:25.295Z,7.35
2023-01-13T17:28:52.980Z,7.34
2023-01-13T17:31:20.746Z,7.35
2023-01-13T17:33:48.517Z,7.36
2023-01-13T17:36:16.329Z,7.37
2023-01-13T17:38:44.058Z,7.38
2023-01-13T17:41:11.791Z,7.38
2023-01-13T17:43:39.461Z,7.38
2023-01-13T17:46:08.674Z,7.39
2023-01-13T17:48:36.454Z,7.41
2023-01-13T17:51:07.476Z,7.41
2023-01-13T17:53:35.129Z,7.45
2023-01-13T17:56:03.034Z,7.48
2023-01-13T17:58:30.706Z,7.49
2023-01-13T18:00:58.844Z,7.49
2023-01-13T18:03:26.720Z,7.47
2023-01-13T18:05:54.445Z,7.43
2023-01-13T18:08:23.611Z,7.40
2023-01-13T18:10:51.826Z,7.35
2023-01-13T18:13:19.545Z,7.29
2023-01-13T18:15:47.251Z,7.26
2023-01-13T18:18:14.964Z,7.21
2023-01-13T18:21:00.463Z,7.16
2023-01-13T18:23:44.092Z,7.11
2023-01-13T18:26:35.139Z,7.08
2023-01-13T18:29:02.868Z,7.09
2023-01-13T18:31:30.549Z,7.10
2023-01-13T18:33:58.196Z,7.11
2023-01-13T18:36:25.904Z,7.14
2023-01-13T18:38:53.636Z,7.18
2023-01-13T18:41:37.259Z,7.20
2023-01-13T18:44:05.088Z,7.23
2023-01-13T18:46:32.904Z,7.26
2023-01-13T18:49:00.664Z,7.27
2023-01-13T18:51:28.311Z,7.28
2023-01-13T18:53:55.930Z,7.26
2023-01-13T18:56:23.634Z,7.23
2023-01-13T18:58:52.135Z,7.21
2023-01-13T19:01:22.535Z,7.19
2023-01-13T19:03:54.429Z,7.18
2023-01-13T19:06:24.008Z,7.16
2023-01-13T19:08:53.349Z,7.13
2023-01-13T19:11:21.965Z,7.08
2023-01-13T19:13:50.324Z,7.00
2023-01-13T19:16:18.906Z,6.92
2023-01-13T19:18:46.673Z,6.85
2023-01-13T19:21:14.797Z,6.79
2023-01-13T19:23:42.509Z,6.72
2023-01-13T19:26:11.176Z,6.67
2023-01-13T19:28:42.253Z,6.59
2023-01-13T19:31:11.292Z,6.52
2023-01-13T19:33:39.996Z,6.46
2023-01-13T19:36:09.601Z,6.42
2023-01-13T19:38:37.696Z,6.38
2023-01-13T19:41:11.192Z,6.34
2023-01-13T19:43:54.819Z,6.31
2023-01-13T19:46:25.477Z,6.27
2023-01-13T19:48:53.141Z,6.24
2023-01-13T19:51:20.774Z,6.19
2023-01-13T19:53:48.369Z,6.15
2023-01-13T19:56:15.975Z,6.11
2023-01-13T19:58:50.321Z,6.08
2023-01-13T20:01:18.560Z,6.04
2023-01-13T20:03:46.978Z,5.97
2023-01-13T20:06:14.754Z,5.89
2023-01-13T20:08:45.898Z,5.84
2023-01-13T20:11:29.629Z,5.79
2023-01-13T20:13:57.884Z,5.74
2023-01-13T20:16:26.322Z,5.68
2023-01-13T20:18:54.006Z,5.62
2023-01-13T20:21:22.222Z,5.57
2023-01-13T20:23:50.948Z,5.52
2023-01-13T20:26:19.112Z,5.49
2023-01-13T20:28:47.357Z,5.46
2023-01-13T20:31:15.781Z,5.43
2023-01-13T20:33:43.634Z,5.37
2023-01-13T20:36:24.516Z,5.33
2023-01-13T20:38:56.246Z,5.29
2023-01-13T20:41:40.940Z,5.25
2023-01-13T20:44:11.376Z,5.22
2023-01-13T20:46:40.240Z,5.16
2023-01-13T20:49:09.915Z,5.11
2023-01-13T20:51:37.792Z,5.08
2023-01-13T20:54:05.680Z,5.06
2023-01-13T20:56:33.363Z,5.04
2023-01-13T20:59:01.217Z,5.03
2023-01-13T21:01:29.057Z,5.02
2023-01-13T21:03:57.517Z,5.00
2023-01-13T21:06:25.616Z,4.99
2023-01-13T21:08:56.173Z,4.97
2023-01-13T21:11:41.075Z,4.94
2023-01-13T21:14:31.833Z,4.92
2023-01-13T21:16:59.833Z,4.90
2023-01-13T21:19:27.752Z,4.89
2023-01-13T21:21:56.577Z,4.86
2023-01-13T21:24:24.718Z,4.84
2023-01-13T21:26:56.287Z,4.82
2023-01-13T21:29:24.048Z,4.81
2023-01-13T21:31:51.799Z,4.79
2023-01-13T21:34:19.582Z,4.77
2023-01-13T21:36:47.227Z,4.75
2023-01-13T21:39:15.973Z,4.73
2023-01-13T21:41:59.685Z,4.71
2023-01-13T21:44:43.328Z,4.68
2023-01-13T21:47:33.607Z,4.66
2023-01-13T21:50:01.637Z,4.63
2023-01-13T21:52:29.374Z,4.61
2023-01-13T21:55:11.994Z,4.59
2023-01-13T21:57:39.682Z,4.58
2023-01-13T22:00:07.916Z,4.57
2023-01-13T22:02:36.473Z,4.57
2023-01-13T22:05:05.663Z,4.58
2023-01-13T22:07:34.141Z,4.60
2023-01-13T22:10:02.485Z,4.60
2023-01-13T22:12:30.350Z,4.62
2023-01-13T22:14:58.040Z,4.65
2023-01-13T22:17:26.760Z,4.66
2023-01-13T22:19:58.828Z,4.67
2023-01-13T22:22:28.464Z,4.68
2023-01-13T22:24:56.313Z,4.69
2023-01-13T22:27:25.356Z,4.70
2023-01-13T22:29:53.299Z,4.71
2023-01-13T22:32:21.143Z,4.70
2023-01-13T22:34:49.111Z,4.71
2023-01-13T22:37:16.801Z,4.70
2023-01-13T22:39:44.496Z,4.68
2023-01-13T22:42:12.391Z,4.66
2023-01-13T22:44:40.055Z,4.66
2023-01-13T22:47:08.551Z,4.65
2023-01-13T22:49:36.215Z,4.64
2023-01-13T22:52:03.961Z,4.62
2023-01-13T22:54:31.656Z,4.61
2023-01-13T22:56:59.260Z,4.60
2023-01-13T22:59:27.270Z,4.59
2023-01-13T23:01:54.901Z,4.58
2023-01-13T23:04:22.805Z,4.60
2023-01-13T23:06:50.514Z,4.60
2023-01-13T23:09:18.120Z,4.58
2023-01-13T23:11:47.786Z,4.56
2023-01-13T23:14:15.934Z,4.51
2023-01-13T23:16:43.691Z,4.51
2023-01-13T23:19:11.575Z,4.50
2023-01-13T23:21:40.359Z,4.49
2023-01-13T23:24:08.217Z,4.47
2023-01-13T23:26:36.544Z,4.46
2023-01-13T23:29:05.723Z,4.42
2023-01-13T23:31:34.164Z,4.40
2023-01-13T23:34:02.043Z,4.37
2023-01-13T23:36:30.056Z,4.35
2023-01-13T23:38:59.108Z,4.33
2023-01-13T23:41:28.065Z,4.33
2023-01-13T23:43:57.305Z,4.32
2023-01-13T23:46:26.238Z,4.30
2023-01-13T23:48:55.323Z,4.29
2023-01-13T23:51:25.202Z,4.27
2023-01-13T23:53:53.781Z,4.25
2023-01-13T23:56:25.525Z,4.24
2023-01-13T23:58:53.411Z,4.24
